Hang Nadim, Indonesia

9:14 PM WIB on May 30, 2015 (GMT +0700)
Batam Hang Nadim | | Change Station
CLOSE
Current Station
Airport
Location: Batam Hang Nadim,
Elevation: 125 ft
Nearby Weather Stations

Elev 125 ft 1.12 °N, 104.12 °E | Updated 14 minutes ago

Partly Cloudy
Partly Cloudy
84 °F
Feels Like 92 °F
N
7
Wind Variable Wind from SE

Today
High -- | Low -- °F
--% Chance of Precip.
Yesterday
High -- | Low -- °F
Precip. -- in
5:55 AM 6:06 PM
Waxing Gibbous, 90% visible
Pressure 29.83 in
Visibility 5.0 miles
Clouds Few 1400 ft
Heat Index 92 °F
Dew Point 75 °F
Humidity 74%
Rainfall 0.00 in
Snow Depth Not available.
UV 0 out of 12
Pollen Not available.
Air Quality Not available.
Flu Activity Not available.
METAR WIDD 301400Z 14006KT 120V200 8000 FEW014 29/24 Q1010

More Conditions Fewer Conditions

Pressure 29.83 in
Visibility 5.0 miles
Clouds Few 1400 ft
Heat Index 92 °F
Dew Point 75 °F
Humidity 74%
Rainfall 0.00 in
Snow Depth Not available.
UV 0 out of 12
Pollen Not available.
Air Quality Not available.
Flu Activity Not available.
METAR WIDD 301400Z 14006KT 120V200 8000 FEW014 29/24 Q1010

More Conditions Fewer Conditions

10-Day Weather Forecast

Almanac

Astronomy

May. 30, 2015 Rise Set
Actual Time
Civil Twilight
Nautical Twilight
Astronomical Twilight
Moon
Length of Visible Light
Length of Day
Tomorrow will be .
, % of the Moon is Illuminated

Today's Extremes

Country Highs Country Lows

Community

WunderPhotos

Upload Photos

1,825,520 photos uploaded!

WunderBlogs® & News

Nearby

Air Quality

  Air Quality AQ Index Pollutant
Not available.

Snow Depth

Station Depth Elevation

Earthquake Activity

City Distance Mag. Time & Date
Minimum magnitude displayed is 2.5.

Coastal Water Temperatures

Place Temperature

Stations

Nearby Weather Stations

Station Location Temp. Windchill Dew Point Humidity Wind Precip. Elev Updated Type